createdAt,value
2019-05-06T00:02:01.937Z,-1.50
2019-05-06T00:04:30.424Z,-1.50
2019-05-06T00:06:58.939Z,-1.50
2019-05-06T00:09:27.466Z,-1.50
2019-05-06T00:11:56.068Z,-1.60
2019-05-06T00:14:24.833Z,-1.60
2019-05-06T00:16:55.149Z,-1.50
2019-05-06T00:19:24.729Z,-1.50
2019-05-06T00:21:54.066Z,-1.40
2019-05-06T00:24:25.161Z,-1.40
2019-05-06T00:27:00.927Z,-1.50
2019-05-06T00:29:30.170Z,-1.50
2019-05-06T00:31:58.829Z,-1.50
2019-05-06T00:34:27.422Z,-1.40
2019-05-06T00:36:56.046Z,-1.30
2019-05-06T00:39:26.217Z,-1.20
2019-05-06T00:42:05.546Z,-1.20
2019-05-06T00:44:34.632Z,-1.10
2019-05-06T00:47:04.374Z,-1.10
2019-05-06T00:49:34.426Z,-1.10
2019-05-06T00:52:04.241Z,-1.10
2019-05-06T00:54:34.031Z,-1.10
2019-05-06T00:57:03.635Z,-1.10
2019-05-06T00:59:34.408Z,-1.10
2019-05-06T01:02:04.661Z,-1.00
2019-05-06T01:04:33.851Z,-1.00
2019-05-06T01:07:03.897Z,-1.00
2019-05-06T01:09:34.821Z,-1.10
2019-05-06T01:12:04.719Z,-1.10
2019-05-06T01:14:38.005Z,-1.10
2019-05-06T01:17:06.582Z,-1.20
2019-05-06T01:19:35.117Z,-1.20
2019-05-06T01:22:04.663Z,-1.20
2019-05-06T01:24:34.523Z,-1.30
2019-05-06T01:27:03.985Z,-1.30
2019-05-06T01:29:34.785Z,-1.30
2019-05-06T01:32:03.749Z,-1.30
2019-05-06T01:34:33.875Z,-1.40
2019-05-06T01:37:03.713Z,-1.50
2019-05-06T01:39:37.461Z,-1.50
2019-05-06T01:42:07.661Z,-1.60
2019-05-06T01:44:36.239Z,-1.60
2019-05-06T01:47:04.878Z,-1.60
2019-05-06T01:49:34.060Z,-1.60
2019-05-06T01:52:04.100Z,-1.60
2019-05-06T01:54:34.315Z,-1.70
2019-05-06T01:57:04.448Z,-1.70
2019-05-06T01:59:34.099Z,-1.70
2019-05-06T02:02:04.329Z,-1.70
2019-05-06T02:04:33.749Z,-1.70
2019-05-06T02:07:03.812Z,-1.70
2019-05-06T02:09:34.204Z,-1.70
2019-05-06T02:12:04.593Z,-1.70
2019-05-06T02:14:34.285Z,-1.70
2019-05-06T02:17:03.634Z,-1.80
2019-05-06T02:19:34.734Z,-1.80
2019-05-06T02:22:16.444Z,-1.80
2019-05-06T02:24:46.677Z,-1.80
2019-05-06T02:27:15.263Z,-1.70
2019-05-06T02:29:54.505Z,-1.70
2019-05-06T02:32:39.787Z,-1.60
2019-05-06T02:35:26.404Z,-1.60
2019-05-06T02:37:55.377Z,-1.50
2019-05-06T02:40:26.883Z,-1.50
2019-05-06T02:42:56.701Z,-1.40
2019-05-06T02:45:25.437Z,-1.30
2019-05-06T02:47:55.703Z,-1.30
2019-05-06T02:50:28.714Z,-1.30
2019-05-06T02:52:57.331Z,-1.20
2019-05-06T02:55:25.917Z,-1.20
2019-05-06T02:57:54.603Z,-1.20
2019-05-06T03:00:24.635Z,-1.20
2019-05-06T03:02:54.105Z,-1.20
2019-05-06T03:05:23.853Z,-1.20
2019-05-06T03:07:57.017Z,-1.20
2019-05-06T03:10:24.621Z,-1.20
2019-05-06T03:12:53.864Z,-1.20
2019-05-06T03:15:24.062Z,-1.20
2019-05-06T03:17:55.274Z,-1.20
2019-05-06T03:20:40.105Z,-1.20
2019-05-06T03:23:16.570Z,-1.10
2019-05-06T03:25:46.023Z,-1.10
2019-05-06T03:28:14.553Z,-1.10
2019-05-06T03:30:45.856Z,-1.10
2019-05-06T03:33:37.178Z,-1.10
2019-05-06T03:35:57.827Z,-1.00
2019-05-06T03:38:14.151Z,-1.00
2019-05-06T03:40:45.721Z,-1.00
2019-05-06T03:43:15.779Z,-1.00
2019-05-06T03:45:45.022Z,-1.00
2019-05-06T03:48:15.308Z,-1.00
2019-05-06T03:50:44.229Z,-1.00
2019-05-06T03:53:14.037Z,-0.90
2019-05-06T03:55:46.751Z,-0.90
2019-05-06T03:58:14.371Z,-0.90
2019-05-06T04:00:43.764Z,-0.90
2019-05-06T04:03:13.987Z,-0.80
2019-05-06T04:05:43.750Z,-0.80
2019-05-06T04:08:13.006Z,-0.70
2019-05-06T04:10:43.496Z,-0.60
2019-05-06T04:13:13.448Z,-0.60
2019-05-06T04:16:03.578Z,-0.50
2019-05-06T04:18:35.880Z,-0.50
2019-05-06T04:21:16.686Z,-0.50
2019-05-06T04:23:59.441Z,-0.50
2019-05-06T04:26:32.765Z,-0.40
2019-05-06T04:29:00.169Z,-0.40
2019-05-06T04:31:29.172Z,-0.40
2019-05-06T04:34:10.237Z,-0.40
2019-05-06T04:36:29.436Z,-0.30
2019-05-06T04:38:58.155Z,-0.30
2019-05-06T04:41:27.033Z,-0.20
2019-05-06T04:43:57.448Z,-0.20
2019-05-06T04:46:26.141Z,-0.20
2019-05-06T04:48:55.480Z,-0.20
2019-05-06T04:51:24.911Z,-0.10
2019-05-06T04:53:54.282Z,0.00
2019-05-06T04:56:23.749Z,0.00
2019-05-06T04:58:53.803Z,0.10
2019-05-06T05:01:23.337Z,0.10
2019-05-06T05:03:53.977Z,0.20
2019-05-06T05:06:23.207Z,0.20
2019-05-06T05:08:53.285Z,0.20
2019-05-06T05:11:33.291Z,0.20
2019-05-06T05:14:09.715Z,0.30
2019-05-06T05:16:49.072Z,0.30
2019-05-06T05:19:17.833Z,0.40
2019-05-06T05:21:46.437Z,0.50
2019-05-06T05:24:15.133Z,0.50
2019-05-06T05:26:46.937Z,0.70
2019-05-06T05:29:14.222Z,0.80
2019-05-06T05:31:43.660Z,0.90
2019-05-06T05:34:12.794Z,1.10
2019-05-06T05:36:42.568Z,1.20
2019-05-06T05:39:12.519Z,1.40
2019-05-06T05:41:42.891Z,1.50
2019-05-06T05:44:19.298Z,1.70
2019-05-06T05:46:47.848Z,1.90
2019-05-06T05:49:22.620Z,2.00
2019-05-06T05:51:52.325Z,2.20
2019-05-06T05:54:23.001Z,2.30
2019-05-06T05:56:52.889Z,2.40
2019-05-06T05:59:23.121Z,2.50
2019-05-06T06:01:52.916Z,2.60
2019-05-06T06:04:22.479Z,2.70
2019-05-06T06:06:52.003Z,2.90
2019-05-06T06:09:22.604Z,3.20
2019-05-06T06:11:53.953Z,3.50
2019-05-06T06:14:43.737Z,3.80
2019-05-06T06:17:33.503Z,4.10
2019-05-06T06:20:22.034Z,4.50
2019-05-06T06:22:52.174Z,4.90
2019-05-06T06:25:23.617Z,5.20
2019-05-06T06:27:52.255Z,5.50
2019-05-06T06:30:33.127Z,5.70
2019-05-06T06:33:02.603Z,5.80
2019-05-06T06:35:33.121Z,5.80
2019-05-06T06:38:09.242Z,5.80
2019-05-06T06:40:38.664Z,5.70
2019-05-06T06:43:08.912Z,5.60
2019-05-06T06:45:37.451Z,5.50
2019-05-06T06:48:06.326Z,5.40
2019-05-06T06:50:34.982Z,5.40
2019-05-06T06:53:03.676Z,5.40
2019-05-06T06:55:32.290Z,5.30
2019-05-06T06:58:06.009Z,5.30
2019-05-06T07:00:36.736Z,5.40
2019-05-06T07:03:15.954Z,5.60
2019-05-06T07:05:49.210Z,5.80
2019-05-06T07:08:30.794Z,5.80
2019-05-06T07:10:48.334Z,5.80
2019-05-06T07:13:17.314Z,5.80
2019-05-06T07:15:46.174Z,5.70
2019-05-06T07:18:14.721Z,5.90
2019-05-06T07:21:03.275Z,6.10
2019-05-06T07:23:32.681Z,6.30
2019-05-06T07:26:03.094Z,6.50
2019-05-06T07:28:32.754Z,6.80
2019-05-06T07:31:17.252Z,6.90
2019-05-06T07:33:33.508Z,6.70
2019-05-06T07:36:02.488Z,6.50
2019-05-06T07:38:32.565Z,6.30
2019-05-06T07:41:04.693Z,6.40
2019-05-06T07:43:35.050Z,6.60
2019-05-06T07:46:23.522Z,6.90
2019-05-06T07:48:52.325Z,7.20
2019-05-06T07:51:20.788Z,7.20
2019-05-06T07:53:49.427Z,7.00
2019-05-06T07:56:17.973Z,6.80
2019-05-06T07:58:46.703Z,6.90
2019-05-06T08:01:16.000Z,7.20
2019-05-06T08:03:44.594Z,7.40
2019-05-06T08:06:13.416Z,7.60
2019-05-06T08:08:43.305Z,7.90
2019-05-06T08:11:12.607Z,8.20
2019-05-06T08:13:43.520Z,8.40
2019-05-06T08:16:13.336Z,8.50
2019-05-06T08:18:42.700Z,8.70
2019-05-06T08:21:15.877Z,8.80
2019-05-06T08:23:46.181Z,8.80
2019-05-06T08:26:17.634Z,8.70
2019-05-06T08:28:45.033Z,8.60
2019-05-06T08:31:14.511Z,8.40
2019-05-06T08:33:43.321Z,8.20
2019-05-06T08:36:15.006Z,8.10
2019-05-06T08:38:56.810Z,8.20
2019-05-06T08:41:26.206Z,8.40
2019-05-06T08:43:54.805Z,8.50
2019-05-06T08:46:23.767Z,8.80
2019-05-06T08:48:52.678Z,9.00
2019-05-06T08:51:26.211Z,9.10
2019-05-06T08:53:56.375Z,9.00
2019-05-06T08:56:24.978Z,8.90
2019-05-06T08:58:53.596Z,8.80
2019-05-06T09:01:23.961Z,8.90
2019-05-06T09:04:06.442Z,8.90
2019-05-06T09:06:29.211Z,8.80
2019-05-06T09:08:56.585Z,8.80
2019-05-06T09:11:25.951Z,8.60
2019-05-06T09:13:55.480Z,8.50
2019-05-06T09:16:25.720Z,8.30
2019-05-06T09:18:54.561Z,8.00
2019-05-06T09:21:23.084Z,7.80
2019-05-06T09:23:53.209Z,7.70
2019-05-06T09:26:35.988Z,7.50
2019-05-06T09:29:23.103Z,7.50
2019-05-06T09:31:53.532Z,7.40
2019-05-06T09:34:29.402Z,7.40
2019-05-06T09:37:13.690Z,7.40
2019-05-06T09:39:44.234Z,7.50
2019-05-06T09:42:14.083Z,7.50
2019-05-06T09:44:44.431Z,7.50
2019-05-06T09:47:15.412Z,7.70
2019-05-06T09:49:44.158Z,8.00
2019-05-06T09:52:13.026Z,8.10
2019-05-06T09:54:42.879Z,8.10
2019-05-06T09:57:22.767Z,8.00
2019-05-06T09:59:52.731Z,7.90
2019-05-06T10:02:23.030Z,7.80
2019-05-06T10:04:52.386Z,7.60
2019-05-06T10:07:22.631Z,7.50
2019-05-06T10:09:52.642Z,7.30
2019-05-06T10:12:21.523Z,7.20
2019-05-06T10:14:52.529Z,7.20
2019-05-06T10:17:21.267Z,7.10
2019-05-06T10:19:49.986Z,7.00
2019-05-06T10:22:18.680Z,7.00
2019-05-06T10:24:47.295Z,7.10
2019-05-06T10:27:15.891Z,7.10
2019-05-06T10:29:55.234Z,7.20
2019-05-06T10:32:32.766Z,7.20
2019-05-06T10:35:02.853Z,7.10
2019-05-06T10:37:42.167Z,7.00
2019-05-06T10:40:19.430Z,7.00
2019-05-06T10:42:52.333Z,6.90
2019-05-06T10:45:29.568Z,6.90
2019-05-06T10:47:58.324Z,6.90
2019-05-06T10:50:29.628Z,7.00
2019-05-06T10:53:16.168Z,7.10
2019-05-06T10:55:47.303Z,7.20
2019-05-06T10:58:15.842Z,7.40
2019-05-06T11:00:44.538Z,7.60
2019-05-06T11:03:22.695Z,7.90
2019-05-06T11:05:53.517Z,8.40
2019-05-06T11:08:22.238Z,8.80
2019-05-06T11:10:53.202Z,8.90
2019-05-06T11:13:21.169Z,8.90
2019-05-06T11:15:52.781Z,8.90
2019-05-06T11:18:23.228Z,8.90
2019-05-06T11:20:52.974Z,8.90
2019-05-06T11:23:22.206Z,8.80
2019-05-06T11:25:52.639Z,9.00
2019-05-06T11:28:39.013Z,9.10
2019-05-06T11:31:14.077Z,9.10
2019-05-06T11:33:43.873Z,9.30
2019-05-06T11:36:29.289Z,9.30
2019-05-06T11:38:57.734Z,9.10
2019-05-06T11:41:26.341Z,8.90
2019-05-06T11:43:54.799Z,8.70
2019-05-06T11:46:23.251Z,8.50
2019-05-06T11:48:52.247Z,8.20
2019-05-06T11:51:23.131Z,8.00
2019-05-06T11:53:54.202Z,7.90
2019-05-06T11:56:23.137Z,7.90
2019-05-06T11:58:53.552Z,7.90
2019-05-06T12:01:35.929Z,8.00
2019-05-06T12:04:04.528Z,8.20
2019-05-06T12:06:33.271Z,8.30
2019-05-06T12:09:06.334Z,8.30
2019-05-06T12:11:32.538Z,8.30
2019-05-06T12:14:02.567Z,8.30
2019-05-06T12:16:33.237Z,8.30
2019-05-06T12:19:02.827Z,8.30
2019-05-06T12:21:32.935Z,8.30
2019-05-06T12:24:02.849Z,8.30
2019-05-06T12:26:32.425Z,8.40
2019-05-06T12:29:02.208Z,8.50
2019-05-06T12:31:32.779Z,8.70
2019-05-06T12:34:02.732Z,9.00
2019-05-06T12:36:32.553Z,9.40
2019-05-06T12:39:17.566Z,9.90
2019-05-06T12:41:50.344Z,10.10
2019-05-06T12:44:22.927Z,10.10
2019-05-06T12:46:54.960Z,9.90
2019-05-06T12:49:24.021Z,9.70
2019-05-06T12:51:53.770Z,9.50
2019-05-06T12:54:22.515Z,9.40
2019-05-06T12:56:52.149Z,9.30
2019-05-06T12:59:22.335Z,9.20
2019-05-06T13:01:53.782Z,9.00
2019-05-06T13:04:43.739Z,8.90
2019-05-06T13:06:53.510Z,8.90
2019-05-06T13:09:22.644Z,8.80
2019-05-06T13:11:52.338Z,8.80
2019-05-06T13:14:22.360Z,8.80
2019-05-06T13:16:53.287Z,8.80
2019-05-06T13:19:22.809Z,9.00
2019-05-06T13:21:52.227Z,9.30
2019-05-06T13:24:22.783Z,9.50
2019-05-06T13:26:52.825Z,9.60
2019-05-06T13:29:24.564Z,9.50
2019-05-06T13:31:53.969Z,9.40
2019-05-06T13:34:23.508Z,9.40
2019-05-06T13:36:53.458Z,9.60
2019-05-06T13:39:23.891Z,9.80
2019-05-06T13:41:52.916Z,9.80
2019-05-06T13:44:22.781Z,9.80
2019-05-06T13:46:53.460Z,9.70
2019-05-06T13:49:27.636Z,9.60
2019-05-06T13:52:03.957Z,9.40
2019-05-06T13:54:31.084Z,9.20
2019-05-06T13:57:02.754Z,9.10
2019-05-06T13:59:30.963Z,9.00
2019-05-06T14:02:10.489Z,8.80
2019-05-06T14:04:39.055Z,8.60
2019-05-06T14:07:07.787Z,8.50
2019-05-06T14:09:40.357Z,8.40
2019-05-06T14:12:06.931Z,8.30
2019-05-06T14:14:35.656Z,8.20
2019-05-06T14:17:04.257Z,8.10
2019-05-06T14:19:33.331Z,8.10
2019-05-06T14:22:03.048Z,8.10
2019-05-06T14:24:32.748Z,8.00
2019-05-06T14:27:04.381Z,8.00
2019-05-06T14:29:37.138Z,8.00
2019-05-06T14:32:05.756Z,8.00
2019-05-06T14:34:34.348Z,8.00
2019-05-06T14:37:02.798Z,8.00
2019-05-06T14:39:48.438Z,8.00
2019-05-06T14:42:04.337Z,7.90
2019-05-06T14:44:34.833Z,7.90
2019-05-06T14:47:05.106Z,7.90
2019-05-06T14:49:33.630Z,7.90
2019-05-06T14:52:03.146Z,7.90
2019-05-06T14:54:33.195Z,8.00
2019-05-06T14:57:14.657Z,8.20
2019-05-06T14:59:43.323Z,8.40
2019-05-06T15:02:13.310Z,8.60
2019-05-06T15:04:43.545Z,8.80
2019-05-06T15:07:12.846Z,8.80
2019-05-06T15:09:55.684Z,8.80
2019-05-06T15:12:13.084Z,8.80
2019-05-06T15:14:42.608Z,8.70
2019-05-06T15:17:11.336Z,8.60
2019-05-06T15:19:40.010Z,8.50
2019-05-06T15:22:08.543Z,8.50
2019-05-06T15:24:37.843Z,8.50
2019-05-06T15:27:06.472Z,8.50
2019-05-06T15:29:35.006Z,8.40
2019-05-06T15:32:08.391Z,8.30
2019-05-06T15:34:38.698Z,8.10
2019-05-06T15:37:12.817Z,8.00
2019-05-06T15:39:40.652Z,7.90
2019-05-06T15:42:09.366Z,7.80
2019-05-06T15:44:38.559Z,7.80
2019-05-06T15:47:07.189Z,7.80
2019-05-06T15:49:35.823Z,7.70
2019-05-06T15:52:04.414Z,7.70
2019-05-06T15:54:32.928Z,7.70
2019-05-06T15:57:01.517Z,7.70
2019-05-06T15:59:33.085Z,7.70
2019-05-06T16:02:01.932Z,7.70
2019-05-06T16:04:32.546Z,7.80
2019-05-06T16:07:02.877Z,7.90
2019-05-06T16:09:32.909Z,8.00
2019-05-06T16:12:02.992Z,8.00
2019-05-06T16:14:34.743Z,8.00
2019-05-06T16:17:02.063Z,8.00
2019-05-06T16:19:33.057Z,7.90
2019-05-06T16:22:03.910Z,7.90
2019-05-06T16:24:38.766Z,7.80
2019-05-06T16:27:07.493Z,7.80
2019-05-06T16:29:35.994Z,7.80
2019-05-06T16:32:06.785Z,7.80
2019-05-06T16:34:35.473Z,7.70
2019-05-06T16:37:04.672Z,7.80
2019-05-06T16:39:33.261Z,7.70
2019-05-06T16:42:03.550Z,7.70
2019-05-06T16:44:32.599Z,7.60
2019-05-06T16:47:02.896Z,7.50
2019-05-06T16:49:33.222Z,7.40
2019-05-06T16:52:02.561Z,7.30
2019-05-06T16:54:34.564Z,7.30
2019-05-06T16:57:06.991Z,7.20
2019-05-06T16:59:35.648Z,7.20
2019-05-06T17:02:05.977Z,7.10
2019-05-06T17:04:36.208Z,7.10
2019-05-06T17:07:04.825Z,7.10
2019-05-06T17:09:33.410Z,7.10
2019-05-06T17:12:04.311Z,7.10
2019-05-06T17:14:32.603Z,7.10
2019-05-06T17:17:03.297Z,7.10
2019-05-06T17:19:32.390Z,7.00
2019-05-06T17:22:03.012Z,7.00
2019-05-06T17:24:33.100Z,6.90
2019-05-06T17:27:02.702Z,6.80
2019-05-06T17:29:50.098Z,6.70
2019-05-06T17:32:22.212Z,6.70
2019-05-06T17:34:57.683Z,6.60
2019-05-06T17:37:46.893Z,6.60
2019-05-06T17:40:17.722Z,6.50
2019-05-06T17:42:46.257Z,6.50
2019-05-06T17:45:33.507Z,6.50
2019-05-06T17:48:03.807Z,6.50
2019-05-06T17:50:33.280Z,6.40
2019-05-06T17:53:02.054Z,6.40
2019-05-06T17:55:32.451Z,6.40
2019-05-06T17:58:02.483Z,6.40
2019-05-06T18:00:32.387Z,6.30
2019-05-06T18:03:02.547Z,6.30
2019-05-06T18:05:32.490Z,6.30
2019-05-06T18:08:02.903Z,6.30
2019-05-06T18:10:33.533Z,6.30
2019-05-06T18:13:03.133Z,6.20
2019-05-06T18:15:32.601Z,6.20
2019-05-06T18:18:02.182Z,6.10
2019-05-06T18:20:33.370Z,6.10
2019-05-06T18:23:02.075Z,6.00
2019-05-06T18:25:32.829Z,5.90
2019-05-06T18:28:01.257Z,5.90
2019-05-06T18:30:33.621Z,5.80
2019-05-06T18:33:02.183Z,5.70
2019-05-06T18:35:30.398Z,5.60
2019-05-06T18:37:58.946Z,5.50
2019-05-06T18:40:27.422Z,5.30
2019-05-06T18:42:57.690Z,5.20
2019-05-06T18:45:26.390Z,5.00
2019-05-06T18:47:54.992Z,4.80
2019-05-06T18:50:23.586Z,4.70
2019-05-06T18:52:52.938Z,4.60
2019-05-06T18:55:22.435Z,4.40
2019-05-06T18:57:52.824Z,4.30
2019-05-06T19:00:23.087Z,4.20
2019-05-06T19:02:52.400Z,4.10
2019-05-06T19:05:28.881Z,4.00
2019-05-06T19:08:02.614Z,4.00
2019-05-06T19:10:33.197Z,3.90
2019-05-06T19:13:02.284Z,3.80
2019-05-06T19:15:34.520Z,3.80
2019-05-06T19:18:04.761Z,3.70
2019-05-06T19:20:33.979Z,3.70
2019-05-06T19:23:02.869Z,3.70
2019-05-06T19:25:33.914Z,3.80
2019-05-06T19:28:04.796Z,3.80
2019-05-06T19:30:34.711Z,3.80
2019-05-06T19:33:03.689Z,3.80
2019-05-06T19:35:36.807Z,3.80
2019-05-06T19:38:05.225Z,3.80
2019-05-06T19:40:35.406Z,3.80
2019-05-06T19:43:04.136Z,3.70
2019-05-06T19:45:36.261Z,3.70
2019-05-06T19:48:05.142Z,3.70
2019-05-06T19:50:36.532Z,3.70
2019-05-06T19:53:04.700Z,3.70
2019-05-06T19:55:36.055Z,3.60
2019-05-06T19:58:06.175Z,3.60
2019-05-06T20:00:36.629Z,3.60
2019-05-06T20:03:05.571Z,3.50
2019-05-06T20:05:43.524Z,3.50
2019-05-06T20:08:28.895Z,3.50
2019-05-06T20:11:13.106Z,3.40
2019-05-06T20:13:41.930Z,3.40
2019-05-06T20:16:12.458Z,3.30
2019-05-06T20:18:42.558Z,3.30
2019-05-06T20:21:12.100Z,3.30
2019-05-06T20:23:42.472Z,3.20
2019-05-06T20:26:12.418Z,3.10
2019-05-06T20:28:42.972Z,3.00
2019-05-06T20:31:11.825Z,3.00
2019-05-06T20:33:42.138Z,2.90
2019-05-06T20:36:12.592Z,2.90
2019-05-06T20:38:42.319Z,2.80
2019-05-06T20:41:12.623Z,2.80
2019-05-06T20:43:42.364Z,2.70
2019-05-06T20:46:12.406Z,2.60
2019-05-06T20:48:42.152Z,2.60
2019-05-06T20:51:12.344Z,2.50
2019-05-06T20:53:43.092Z,2.40
2019-05-06T20:56:12.394Z,2.30
2019-05-06T20:58:42.034Z,2.20
2019-05-06T21:01:10.875Z,2.20
2019-05-06T21:03:39.480Z,2.10
2019-05-06T21:06:08.082Z,2.10
2019-05-06T21:08:36.722Z,2.00
2019-05-06T21:11:05.436Z,1.90
2019-05-06T21:13:35.566Z,1.80
2019-05-06T21:16:04.569Z,1.70
2019-05-06T21:18:33.195Z,1.70
2019-05-06T21:21:02.187Z,1.70
2019-05-06T21:23:32.138Z,1.60
2019-05-06T21:26:03.126Z,1.50
2019-05-06T21:28:31.245Z,1.50
2019-05-06T21:31:00.303Z,1.40
2019-05-06T21:33:29.077Z,1.30
2019-05-06T21:35:58.307Z,1.20
2019-05-06T21:38:26.883Z,1.20
2019-05-06T21:40:55.412Z,1.10
2019-05-06T21:43:24.010Z,1.00
2019-05-06T21:45:54.143Z,1.00
2019-05-06T21:48:23.101Z,0.90
2019-05-06T21:50:52.209Z,0.80
2019-05-06T21:53:23.097Z,0.80
2019-05-06T21:55:52.497Z,0.70
2019-05-06T21:58:23.158Z,0.70
2019-05-06T22:00:53.984Z,0.70
2019-05-06T22:03:23.015Z,0.60
2019-05-06T22:05:54.326Z,0.60
2019-05-06T22:08:23.825Z,0.60
2019-05-06T22:10:52.955Z,0.60
2019-05-06T22:13:21.944Z,0.60
2019-05-06T22:15:50.731Z,0.50
2019-05-06T22:18:19.367Z,0.50
2019-05-06T22:21:08.379Z,0.50
2019-05-06T22:23:56.759Z,0.50
2019-05-06T22:26:25.690Z,0.40
2019-05-06T22:28:54.600Z,0.40
2019-05-06T22:31:24.582Z,0.40
2019-05-06T22:33:53.674Z,0.30
2019-05-06T22:36:22.781Z,0.30
2019-05-06T22:38:53.063Z,0.20
2019-05-06T22:41:23.317Z,0.20
2019-05-06T22:43:53.149Z,0.20
2019-05-06T22:46:23.491Z,0.20
2019-05-06T22:48:54.585Z,0.30
2019-05-06T22:51:23.399Z,0.30
2019-05-06T22:53:53.222Z,0.30
2019-05-06T22:56:22.853Z,0.40
2019-05-06T22:58:52.422Z,0.30
2019-05-06T23:01:32.590Z,0.30
2019-05-06T23:04:02.055Z,0.30
2019-05-06T23:06:32.724Z,0.30
2019-05-06T23:09:02.513Z,0.30
2019-05-06T23:11:32.886Z,0.30
2019-05-06T23:14:02.692Z,0.30
2019-05-06T23:16:34.618Z,0.20
2019-05-06T23:19:02.164Z,0.20
2019-05-06T23:21:33.492Z,0.10
2019-05-06T23:24:02.155Z,0.10
2019-05-06T23:26:31.044Z,0.10
2019-05-06T23:28:59.626Z,0.10
2019-05-06T23:31:28.274Z,0.10
2019-05-06T23:33:56.989Z,0.10
2019-05-06T23:36:28.685Z,0.10
2019-05-06T23:39:33.969Z,0.10
2019-05-06T23:42:38.843Z,0.10
2019-05-06T23:45:44.100Z,0.10
2019-05-06T23:48:48.918Z,0.10
2019-05-06T23:51:54.064Z,0.00
2019-05-06T23:54:59.284Z,0.00
2019-05-06T23:57:26.766Z,0.00
2019-05-06T23:59:55.252Z,0.00
